createdAt,value
2023-02-09T11:59:59.658Z,13.35
2023-02-09T12:02:51.510Z,13.35
2023-02-09T12:05:21.222Z,13.10
2023-02-09T12:08:07.209Z,12.65
2023-02-09T12:10:52.566Z,12.17
2023-02-09T12:13:31.495Z,11.98
2023-02-09T12:16:05.297Z,12.30
2023-02-09T12:18:35.522Z,12.00
2023-02-09T12:21:05.741Z,10.63
2023-02-09T12:23:41.391Z,9.40
2023-02-09T12:26:11.903Z,9.57
2023-02-09T12:28:44.316Z,10.60
2023-02-09T12:31:21.311Z,10.15
2023-02-09T12:33:48.806Z,10.73
2023-02-09T12:38:53.836Z,11.95
2023-02-09T12:41:28.698Z,14.68
2023-02-09T12:44:11.458Z,16.50
2023-02-09T12:46:44.715Z,19.30
2023-02-09T12:49:12.332Z,21.08
2023-02-09T12:51:52.604Z,23.35
2023-02-09T12:54:29.291Z,22.00
2023-02-09T12:57:19.016Z,23.98
2023-02-09T12:59:52.792Z,25.42
2023-02-09T13:02:24.151Z,22.05
2023-02-09T13:04:56.033Z,19.73
2023-02-09T13:08:06.256Z,18.52
2023-02-09T13:10:57.801Z,14.00
2023-02-09T13:13:34.490Z,12.30
2023-02-09T13:16:04.853Z,10.93
2023-02-09T13:18:55.634Z,10.88
2023-02-09T13:21:34.565Z,10.35
2023-02-09T13:24:19.703Z,10.05
2023-02-09T13:26:50.691Z,10.80
2023-02-09T13:29:22.235Z,10.55
2023-02-09T13:32:11.788Z,10.30
2023-02-09T13:34:42.777Z,10.98
2023-02-09T13:37:28.459Z,10.27
2023-02-09T13:40:00.836Z,10.23
2023-02-09T13:42:31.651Z,10.85
2023-02-09T13:44:59.858Z,11.57
2023-02-09T13:47:28.992Z,11.15
2023-02-09T13:49:58.545Z,11.95
2023-02-09T13:52:26.960Z,11.45
2023-02-09T13:54:54.850Z,11.75
2023-02-09T13:57:33.871Z,10.88
2023-02-09T14:00:10.179Z,11.00
2023-02-09T14:02:50.214Z,11.13
2023-02-09T14:05:45.645Z,11.70
2023-02-09T14:08:17.790Z,11.35
2023-02-09T14:10:52.527Z,11.20
2023-02-09T14:13:34.681Z,11.32
2023-02-09T14:16:07.519Z,11.02
2023-02-09T14:18:50.439Z,11.75
2023-02-09T14:21:28.623Z,11.50
2023-02-09T14:23:56.128Z,11.10
2023-02-09T14:29:31.441Z,11.70
2023-02-09T14:32:01.634Z,11.05
2023-02-09T14:34:35.470Z,11.75
2023-02-09T14:37:13.686Z,11.20
2023-02-09T14:40:12.575Z,11.57
2023-02-09T14:43:11.407Z,11.27
2023-02-09T14:45:40.109Z,10.90
2023-02-09T14:48:20.827Z,10.15
2023-02-09T14:50:50.728Z,10.40
2023-02-09T14:53:18.954Z,9.85
2023-02-09T14:55:47.693Z,11.55
2023-02-09T14:58:24.335Z,11.38
2023-02-09T15:00:54.161Z,11.73
2023-02-09T15:03:21.750Z,10.95
2023-02-09T15:05:51.693Z,10.20
2023-02-09T15:08:23.768Z,10.45
2023-02-09T15:10:56.313Z,10.57
2023-02-09T15:13:24.410Z,9.88
2023-02-09T15:15:51.796Z,10.18
2023-02-09T15:20:49.137Z,11.18
2023-02-09T15:23:17.478Z,10.85
2023-02-09T15:25:45.534Z,10.88
2023-02-09T15:28:28.121Z,11.65
2023-02-09T15:30:57.693Z,12.18
2023-02-09T15:33:26.438Z,10.65
2023-02-09T15:35:54.634Z,10.93
2023-02-09T15:38:22.201Z,10.52
2023-02-09T15:41:09.036Z,11.82
2023-02-09T15:43:55.370Z,11.63
2023-02-09T15:46:41.443Z,11.00
2023-02-09T15:49:09.174Z,11.13
2023-02-09T15:51:38.952Z,11.68
2023-02-09T15:54:19.426Z,11.40
2023-02-09T15:56:47.620Z,11.52
2023-02-09T15:59:22.919Z,11.65
2023-02-09T16:01:51.115Z,11.05
2023-02-09T16:04:18.880Z,11.73
2023-02-09T16:06:50.114Z,10.60
2023-02-09T16:09:21.006Z,11.05
2023-02-09T16:11:48.738Z,11.07
2023-02-09T16:14:20.602Z,9.82
2023-02-09T16:16:48.984Z,10.75
2023-02-09T16:19:17.118Z,11.20
2023-02-09T16:21:49.578Z,11.52
2023-02-09T16:24:28.053Z,10.65
2023-02-09T16:26:55.900Z,10.85
2023-02-09T16:29:25.984Z,10.65
2023-02-09T16:31:53.536Z,10.60
2023-02-09T16:34:21.184Z,10.60
2023-02-09T16:36:49.392Z,9.90
2023-02-09T16:39:21.810Z,10.32
2023-02-09T16:41:53.593Z,9.98
2023-02-09T16:44:23.869Z,9.93
2023-02-09T16:46:53.851Z,9.60
2023-02-09T16:49:27.250Z,9.68
2023-02-09T16:51:57.711Z,11.32
2023-02-09T16:54:25.165Z,12.48
2023-02-09T16:56:54.575Z,13.55
2023-02-09T16:59:22.522Z,12.88
2023-02-09T17:01:50.434Z,11.40
2023-02-09T17:04:18.127Z,13.48
2023-02-09T17:06:50.605Z,12.70
2023-02-09T17:09:18.045Z,12.10
2023-02-09T17:14:13.058Z,12.15
2023-02-09T17:16:44.873Z,11.98
2023-02-09T17:19:18.192Z,12.82
2023-02-09T17:21:46.361Z,11.68
2023-02-09T17:24:17.472Z,11.93
2023-02-09T17:26:45.214Z,11.77
2023-02-09T17:29:12.848Z,12.07
2023-02-09T17:31:52.708Z,11.02
2023-02-09T17:34:27.152Z,10.93
2023-02-09T17:36:56.545Z,11.38
2023-02-09T17:39:24.197Z,11.38
2023-02-09T17:41:52.208Z,11.80
2023-02-09T17:44:43.398Z,11.45
2023-02-09T17:47:18.118Z,12.10
2023-02-09T17:49:46.387Z,16.50
2023-02-09T17:52:18.712Z,14.88
2023-02-09T17:54:47.023Z,13.43
2023-02-09T17:57:16.467Z,12.85
2023-02-09T17:59:46.094Z,14.15
2023-02-09T18:02:19.895Z,13.75
2023-02-09T18:04:48.017Z,13.05
2023-02-09T18:07:20.507Z,13.63
2023-02-09T18:09:48.143Z,12.73
2023-02-09T18:14:50.195Z,12.45
2023-02-09T18:19:45.097Z,12.80
2023-02-09T18:22:17.029Z,12.52
2023-02-09T18:24:44.725Z,14.02
2023-02-09T18:27:15.458Z,14.60
2023-02-09T18:29:42.942Z,12.90
2023-02-09T18:34:39.259Z,14.93
2023-02-09T18:39:36.918Z,16.30
2023-02-09T18:42:04.452Z,16.45
2023-02-09T18:44:33.279Z,17.50
2023-02-09T18:47:00.734Z,14.45
2023-02-09T18:49:28.868Z,14.68
2023-02-09T18:51:57.082Z,14.65
2023-02-09T18:54:24.580Z,14.55
2023-02-09T18:56:54.318Z,15.05
2023-02-09T18:59:21.828Z,15.60
2023-02-09T19:01:50.732Z,25.02
2023-02-09T19:04:18.775Z,25.40
2023-02-09T19:06:46.241Z,22.55
2023-02-09T19:09:13.832Z,19.65
2023-02-09T19:11:41.362Z,18.23
2023-02-09T19:14:27.280Z,16.60
2023-02-09T19:16:54.839Z,14.82
2023-02-09T19:19:22.400Z,14.63
2023-02-09T19:21:52.233Z,15.77
2023-02-09T19:24:48.504Z,16.70
2023-02-09T19:27:18.675Z,14.48
2023-02-09T19:29:46.749Z,15.63
2023-02-09T19:32:15.186Z,18.15
2023-02-09T19:34:43.221Z,17.27
2023-02-09T19:37:11.115Z,16.52
2023-02-09T19:39:40.154Z,16.15
2023-02-09T19:42:08.688Z,15.68
2023-02-09T19:44:36.396Z,15.75
2023-02-09T19:47:04.054Z,15.70
2023-02-09T19:49:33.372Z,18.00
2023-02-09T19:52:01.638Z,16.90
2023-02-09T19:56:56.646Z,18.05
2023-02-09T19:59:24.104Z,16.13
2023-02-09T20:01:51.664Z,17.40
2023-02-09T20:04:19.097Z,16.20
2023-02-09T20:09:13.835Z,16.15
2023-02-09T20:11:41.466Z,15.55
2023-02-09T20:14:09.357Z,14.43
2023-02-09T20:16:37.040Z,13.57
2023-02-09T20:19:04.643Z,14.05
2023-02-09T20:21:32.295Z,14.45
2023-02-09T20:23:59.687Z,14.02
2023-02-09T20:28:57.660Z,14.15
2023-02-09T20:31:28.515Z,16.63
2023-02-09T20:33:56.470Z,17.98
2023-02-09T20:36:25.620Z,17.30
2023-02-09T20:38:53.490Z,19.80
2023-02-09T20:41:21.371Z,18.98
2023-02-09T20:44:07.607Z,17.98
2023-02-09T20:46:41.441Z,19.90
2023-02-09T20:49:11.900Z,32.90
2023-02-09T20:51:39.341Z,28.52
2023-02-09T20:54:07.345Z,23.98
2023-02-09T20:56:35.001Z,24.95
2023-02-09T20:59:03.873Z,20.55
2023-02-09T21:01:31.517Z,19.67
2023-02-09T21:04:00.452Z,22.50
2023-02-09T21:06:29.021Z,23.60
2023-02-09T21:08:56.566Z,24.40
2023-02-09T21:11:24.105Z,21.77
2023-02-09T21:13:51.751Z,19.05
2023-02-09T21:16:20.565Z,18.13
2023-02-09T21:18:48.087Z,19.98
2023-02-09T21:23:44.506Z,17.50
2023-02-09T21:26:15.946Z,16.88
2023-02-09T21:28:44.215Z,16.80
2023-02-09T21:31:14.235Z,17.27
2023-02-09T21:33:41.712Z,17.40
2023-02-09T21:38:41.621Z,17.33
2023-02-09T21:41:33.653Z,16.90
2023-02-09T21:44:01.513Z,17.25
2023-02-09T21:46:28.997Z,18.75
2023-02-09T21:48:56.598Z,19.88
2023-02-09T21:51:24.415Z,21.17
2023-02-09T21:53:52.078Z,23.35
2023-02-09T21:56:19.549Z,21.60
2023-02-09T21:58:47.585Z,21.27
2023-02-09T22:01:15.432Z,22.38
2023-02-09T22:03:42.967Z,20.98
2023-02-09T22:08:38.588Z,22.25
2023-02-09T22:11:06.320Z,21.40
2023-02-09T22:13:34.516Z,20.77
2023-02-09T22:16:07.216Z,20.67
2023-02-09T22:18:36.337Z,22.20
2023-02-09T22:21:08.147Z,22.35
2023-02-09T22:23:36.261Z,21.33
2023-02-09T22:26:06.288Z,22.02
2023-02-09T22:28:36.432Z,23.52
2023-02-09T22:31:09.399Z,20.88
2023-02-09T22:33:37.064Z,22.05
2023-02-09T22:36:12.189Z,21.65
2023-02-09T22:38:40.201Z,21.73
2023-02-09T22:41:22.158Z,20.45
2023-02-09T22:43:49.560Z,22.23
2023-02-09T22:46:17.671Z,22.15
2023-02-09T22:48:49.494Z,20.90
2023-02-09T22:51:17.920Z,19.88
2023-02-09T22:53:46.005Z,21.02
2023-02-09T22:56:14.406Z,21.05
2023-02-09T22:58:41.954Z,20.77
2023-02-09T23:01:10.476Z,21.98
2023-02-09T23:03:38.706Z,20.65
2023-02-09T23:06:09.544Z,19.63
2023-02-09T23:08:37.039Z,20.00
2023-02-09T23:13:34.018Z,20.23
2023-02-09T23:16:20.826Z,20.17
2023-02-09T23:18:53.782Z,20.10
2023-02-09T23:21:23.228Z,20.50
2023-02-09T23:23:51.004Z,20.75
2023-02-09T23:26:19.657Z,20.23
2023-02-09T23:28:47.671Z,19.27
2023-02-09T23:31:18.148Z,19.55
2023-02-09T23:33:45.776Z,18.70
2023-02-09T23:36:18.683Z,21.00
2023-02-09T23:38:47.377Z,19.45
2023-02-09T23:41:17.197Z,19.02
2023-02-09T23:43:44.701Z,20.35
2023-02-09T23:48:40.598Z,19.38
2023-02-09T23:51:12.407Z,19.73
2023-02-09T23:53:40.247Z,18.70
2023-02-09T23:56:08.133Z,19.55
2023-02-09T23:58:38.815Z,19.33
